首页
METAR-TAF:

METAR-TAF

机场 :

Fort St. John, 不列颠哥伦比亚, 加拿大

纬度: 56-14N, 经度: 120-44W, 海拔: 695米

当前天气观测

该预报发布于43分钟前的09:00 UTC
风速3节,风向南转南东
温度 -4°C
湿度 93%
气压 1003 hPa
能見度: 24.1公里
多云层高于16000英尺

METAR: CYXJ 150900Z 15003KT 15SM BKN160 M04/M05 A2963 RMK AC7 SLP077

时间: 02:43 (09:43 UTC)

预报

该预报发布于3小时和1分钟前的06:42 UTC
预报有效从15日的 07点(UTC)到 15日的 19点(UTC)
风速8节,风向东南
能見度: 10公里
散云层高于1200英尺
多云层高于20000英尺
短暂存在
从 15日的 07点(UTC)到 15日的 16点(UTC)
多云层高于1200英尺
阴天层高于20000英尺
几率 30%
从 15日的 07点(UTC)到 15日的 16点(UTC)
能見度: 0.8公里
层高于200英尺
冻雾
从 15日的 1600点(UTC)
风速12节,风向西转西南
能見度: 10公里
少量云层高于8000英尺

TAF: CYXJ 150642Z 1507/1519 13008KT P6SM SCT012 BKN200 TEMPO 1507/1516 BKN012 OVC200 PROB30 1507/1516 1/2SM FZFG VV002 FM151600 24012KT P6SM FEW080 RMK NXT FCST BY 151300Z

超过4000个机场的气象观测和天气预报(METAR&TAF报告)。

可查询的气象台以黄色和红色小点在地图上表示。

将鼠标移到小点上方,可查看气象台名称。

然后点击查看天气观测和预报。

如需切换地图:点击带黑十字的绿色按钮放大地图;点击带横线的绿色按钮缩小地图;或者点击绿色箭头查看邻近地区的地图。


METAR-TAF: